createdAt,value
2023-05-18T00:01:32.821Z,3.57
2023-05-18T00:04:17.582Z,3.47
2023-05-18T00:07:05.031Z,5.73
2023-05-18T00:09:50.075Z,6.03
2023-05-18T00:12:34.211Z,6.90
2023-05-18T00:15:18.289Z,4.43
2023-05-18T00:18:02.589Z,5.13
2023-05-18T00:20:46.846Z,6.97
2023-05-18T00:23:33.282Z,5.10
2023-05-18T00:26:17.292Z,4.50
2023-05-18T00:29:02.966Z,5.50
2023-05-18T00:31:47.415Z,4.13
2023-05-18T00:34:31.816Z,5.83
2023-05-18T00:37:15.897Z,6.77
2023-05-18T00:40:01.367Z,5.43
2023-05-18T00:42:48.217Z,6.53
2023-05-18T00:45:32.449Z,5.50
2023-05-18T00:48:16.694Z,5.57
2023-05-18T00:51:02.199Z,6.40
2023-05-18T00:53:46.640Z,5.43
2023-05-18T00:56:34.312Z,5.37
2023-05-18T00:59:18.714Z,4.90
2023-05-18T01:02:03.204Z,6.23
2023-05-18T01:04:47.468Z,5.00
2023-05-18T01:07:33.725Z,4.43
2023-05-18T01:10:19.928Z,5.57
2023-05-18T01:13:10.984Z,5.73
2023-05-18T01:16:03.090Z,5.80
2023-05-18T01:18:55.082Z,4.27
2023-05-18T01:21:57.668Z,4.63
2023-05-18T01:24:45.792Z,4.83
2023-05-18T01:27:37.770Z,4.30
2023-05-18T01:30:22.460Z,5.03
2023-05-18T01:33:08.700Z,5.10
2023-05-18T01:35:52.835Z,4.83
2023-05-18T01:38:41.665Z,3.67
2023-05-18T01:41:29.670Z,4.07
2023-05-18T01:44:22.153Z,4.53
2023-05-18T01:47:12.014Z,3.93
2023-05-18T01:50:01.221Z,4.13
2023-05-18T01:52:55.539Z,3.23
2023-05-18T01:55:41.900Z,3.60
2023-05-18T01:58:28.942Z,3.30
2023-05-18T02:01:16.221Z,4.60
2023-05-18T02:04:00.374Z,4.10
2023-05-18T02:06:44.769Z,4.10
2023-05-18T02:09:29.571Z,2.80
2023-05-18T02:12:13.690Z,3.77
2023-05-18T02:14:58.603Z,2.77
2023-05-18T02:17:44.123Z,3.00
2023-05-18T02:20:50.856Z,2.30
2023-05-18T02:23:35.072Z,2.50
2023-05-18T02:26:19.674Z,2.63
2023-05-18T02:29:11.987Z,3.10
2023-05-18T02:31:56.345Z,3.07
2023-05-18T02:34:46.421Z,3.10
2023-05-18T02:37:34.537Z,2.67
2023-05-18T02:40:18.634Z,3.27
2023-05-18T02:43:02.593Z,3.03
2023-05-18T02:45:47.512Z,2.80
2023-05-18T02:48:32.268Z,2.57
2023-05-18T02:51:17.586Z,2.40
2023-05-18T02:54:02.074Z,2.70
2023-05-18T02:56:49.073Z,2.40
2023-05-18T02:59:47.433Z,2.27
2023-05-18T03:02:31.591Z,3.27
2023-05-18T03:05:16.770Z,2.30
2023-05-18T03:08:02.606Z,2.50
2023-05-18T03:10:48.241Z,2.60
2023-05-18T03:13:32.152Z,3.50
2023-05-18T03:16:17.219Z,3.30
2023-05-18T03:19:02.899Z,3.10
2023-05-18T03:21:53.683Z,2.87
2023-05-18T03:24:41.473Z,2.60
2023-05-18T03:27:29.763Z,2.80
2023-05-18T03:30:14.163Z,2.47
2023-05-18T03:32:58.054Z,2.60
2023-05-18T03:35:42.371Z,2.70
2023-05-18T03:38:26.657Z,2.47
2023-05-18T03:41:18.480Z,2.47
2023-05-18T03:44:02.493Z,2.90
2023-05-18T03:46:47.518Z,2.97
2023-05-18T03:49:31.730Z,2.40
2023-05-18T03:52:22.256Z,3.60
2023-05-18T03:55:07.230Z,2.90
2023-05-18T03:57:53.899Z,3.53
2023-05-18T04:00:39.217Z,3.50
2023-05-18T04:03:25.251Z,3.17
2023-05-18T04:06:10.456Z,3.60
2023-05-18T04:08:55.053Z,4.20
2023-05-18T04:11:38.984Z,3.70
2023-05-18T04:14:24.820Z,3.37
2023-05-18T04:17:10.275Z,3.23
2023-05-18T04:19:54.280Z,3.63
2023-05-18T04:22:43.381Z,3.10
2023-05-18T04:25:28.563Z,7.70
2023-05-18T04:28:12.773Z,2.40
2023-05-18T04:30:59.149Z,3.00
2023-05-18T04:33:47.435Z,2.70
2023-05-18T04:36:31.793Z,3.27
2023-05-18T04:39:15.613Z,3.03
2023-05-18T04:42:00.328Z,2.87
2023-05-18T04:44:45.774Z,3.03
2023-05-18T04:47:32.998Z,3.33
2023-05-18T04:50:18.523Z,2.63
2023-05-18T04:53:03.586Z,2.77
2023-05-18T04:55:49.058Z,3.37
2023-05-18T04:58:35.710Z,3.25
2023-05-18T05:01:20.013Z,3.77
2023-05-18T05:04:07.137Z,3.33
2023-05-18T05:06:51.029Z,5.65
2023-05-18T05:09:34.960Z,4.83
2023-05-18T05:12:19.231Z,3.47
2023-05-18T05:15:03.236Z,3.30
2023-05-18T05:17:50.666Z,3.00
2023-05-18T05:20:36.496Z,2.53
2023-05-18T05:23:20.449Z,2.80
2023-05-18T05:26:05.115Z,2.47
2023-05-18T05:28:49.464Z,3.77
2023-05-18T05:31:34.744Z,3.77
2023-05-18T05:34:18.909Z,4.72
2023-05-18T05:37:04.648Z,5.57
2023-05-18T05:39:48.752Z,5.37
2023-05-18T05:42:35.058Z,6.37
2023-05-18T05:45:20.177Z,5.87
2023-05-18T05:48:13.517Z,5.93
2023-05-18T05:50:58.273Z,5.40
2023-05-18T05:53:46.273Z,4.10
2023-05-18T05:56:32.397Z,3.07
2023-05-18T05:59:16.794Z,3.80
2023-05-18T06:02:00.884Z,4.07
2023-05-18T06:04:45.001Z,3.55
2023-05-18T06:07:30.246Z,3.90
2023-05-18T06:10:15.683Z,3.27
2023-05-18T06:12:59.934Z,4.60
2023-05-18T06:15:52.039Z,5.15
2023-05-18T06:18:36.751Z,5.88
2023-05-18T06:21:22.787Z,4.87
2023-05-18T06:24:08.056Z,5.65
2023-05-18T06:27:19.654Z,4.57
2023-05-18T06:30:12.209Z,4.53
2023-05-18T06:33:15.038Z,3.47
2023-05-18T06:35:59.068Z,3.95
2023-05-18T06:38:43.003Z,2.90
2023-05-18T06:41:26.932Z,3.30
2023-05-18T06:44:12.662Z,6.22
2023-05-18T06:47:16.204Z,3.65
2023-05-18T06:50:00.157Z,3.90
2023-05-18T06:52:46.227Z,4.75
2023-05-18T06:55:30.292Z,4.07
2023-05-18T06:58:14.637Z,4.20
2023-05-18T07:01:01.344Z,3.50
2023-05-18T07:03:45.877Z,4.80
2023-05-18T07:06:30.088Z,3.80
2023-05-18T07:09:13.999Z,3.72
2023-05-18T07:11:57.944Z,4.28
2023-05-18T07:14:41.868Z,3.70
2023-05-18T07:17:27.220Z,4.32
2023-05-18T07:20:11.970Z,4.90
2023-05-18T07:22:56.304Z,3.28
2023-05-18T07:25:40.315Z,3.13
2023-05-18T07:28:24.621Z,3.95
2023-05-18T07:31:08.545Z,3.42
2023-05-18T07:33:53.972Z,3.25
2023-05-18T07:36:37.906Z,4.70
2023-05-18T07:39:28.557Z,4.50
2023-05-18T07:42:12.677Z,4.38
2023-05-18T07:44:56.528Z,4.80
2023-05-18T07:47:40.946Z,4.20
2023-05-18T07:50:26.618Z,6.40
2023-05-18T07:53:10.486Z,5.50
2023-05-18T07:55:54.495Z,4.03
2023-05-18T07:58:38.517Z,5.00
2023-05-18T08:01:27.398Z,5.43
2023-05-18T08:04:11.456Z,4.65
2023-05-18T08:07:00.568Z,4.33
2023-05-18T08:09:44.932Z,4.50
2023-05-18T08:12:30.051Z,4.78
2023-05-18T08:15:14.112Z,4.50
2023-05-18T08:17:58.058Z,4.30
2023-05-18T08:20:42.008Z,4.55
2023-05-18T08:23:27.351Z,4.82
2023-05-18T08:26:13.950Z,4.60
2023-05-18T08:28:58.135Z,4.45
2023-05-18T08:31:42.601Z,5.53
2023-05-18T08:34:26.632Z,5.65
2023-05-18T08:37:10.516Z,8.65
2023-05-18T08:39:55.905Z,7.65
2023-05-18T08:42:50.514Z,5.40
2023-05-18T08:45:41.184Z,6.72
2023-05-18T08:48:28.438Z,6.90
2023-05-18T08:51:14.372Z,6.22
2023-05-18T08:53:59.942Z,6.25
2023-05-18T08:56:46.359Z,5.20
2023-05-18T08:59:33.031Z,4.85
2023-05-18T09:02:17.620Z,4.55
2023-05-18T09:05:02.733Z,4.68
2023-05-18T09:07:50.445Z,4.10
2023-05-18T09:10:35.149Z,4.25
2023-05-18T09:13:21.328Z,4.15
2023-05-18T09:16:05.569Z,4.47
2023-05-18T09:18:49.595Z,4.00
2023-05-18T09:21:33.952Z,4.50
2023-05-18T09:24:19.478Z,4.53
2023-05-18T09:27:03.747Z,4.25
2023-05-18T09:29:56.628Z,4.88
2023-05-18T09:32:40.869Z,4.30
2023-05-18T09:35:26.660Z,4.05
2023-05-18T09:38:11.090Z,4.55
2023-05-18T09:40:55.172Z,4.53
2023-05-18T09:43:39.364Z,4.78
2023-05-18T09:46:24.638Z,4.63
2023-05-18T09:49:09.961Z,4.55
2023-05-18T09:51:54.262Z,4.50
2023-05-18T09:54:39.211Z,4.55
2023-05-18T09:57:23.178Z,4.38
2023-05-18T10:00:11.128Z,4.88
2023-05-18T10:02:56.736Z,5.07
2023-05-18T10:05:43.837Z,4.35
2023-05-18T10:08:27.860Z,4.75
2023-05-18T10:11:12.658Z,5.00
2023-05-18T10:13:57.113Z,5.03
2023-05-18T10:16:42.793Z,5.00
2023-05-18T10:19:29.478Z,4.63
2023-05-18T10:22:17.568Z,4.97
2023-05-18T10:25:04.697Z,5.57
2023-05-18T10:27:50.535Z,6.25
2023-05-18T10:30:35.785Z,6.32
2023-05-18T10:33:28.609Z,7.63
2023-05-18T10:36:16.557Z,7.63
2023-05-18T10:39:02.036Z,7.38
2023-05-18T10:41:48.317Z,6.32
2023-05-18T10:44:33.127Z,7.03
2023-05-18T10:47:17.300Z,6.47
2023-05-18T10:50:02.936Z,7.57
2023-05-18T10:52:50.028Z,6.47
2023-05-18T10:55:34.518Z,7.60
2023-05-18T10:58:20.027Z,7.68
2023-05-18T11:01:08.497Z,7.88
2023-05-18T11:03:52.366Z,7.43
2023-05-18T11:06:36.560Z,7.20
2023-05-18T11:09:26.312Z,6.68
2023-05-18T11:12:14.236Z,7.15
2023-05-18T11:14:58.558Z,14.10
2023-05-18T11:17:42.301Z,16.45
2023-05-18T11:20:27.339Z,14.02
2023-05-18T11:23:11.069Z,12.80
2023-05-18T11:25:56.146Z,11.35
2023-05-18T11:28:45.124Z,10.25
2023-05-18T11:31:47.178Z,7.82
2023-05-18T11:34:52.674Z,6.82
2023-05-18T11:37:50.064Z,6.22
2023-05-18T11:40:47.929Z,7.38
2023-05-18T11:43:34.011Z,9.25
2023-05-18T11:46:22.446Z,13.57
2023-05-18T11:49:08.446Z,16.63
2023-05-18T11:52:04.781Z,16.83
2023-05-18T11:54:52.407Z,19.67
2023-05-18T11:57:40.949Z,20.10
2023-05-18T12:00:26.690Z,18.88
2023-05-18T12:03:10.994Z,15.48
2023-05-18T12:05:55.421Z,12.45
2023-05-18T12:08:44.048Z,11.13
2023-05-18T12:11:27.795Z,10.15
2023-05-18T12:14:12.677Z,10.45
2023-05-18T12:16:59.947Z,10.13
2023-05-18T12:19:45.266Z,11.07
2023-05-18T12:22:28.991Z,10.15
2023-05-18T12:25:13.234Z,10.40
2023-05-18T12:27:57.905Z,10.23
2023-05-18T12:30:44.090Z,9.63
2023-05-18T12:33:29.293Z,10.40
2023-05-18T12:36:14.120Z,8.88
2023-05-18T12:38:57.817Z,9.02
2023-05-18T12:41:41.479Z,10.00
2023-05-18T12:44:25.157Z,10.27
2023-05-18T12:47:09.053Z,8.77
2023-05-18T12:49:54.196Z,8.82
2023-05-18T12:52:38.642Z,9.20
2023-05-18T12:55:23.211Z,9.57
2023-05-18T12:58:09.836Z,10.52
2023-05-18T13:00:53.592Z,9.73
2023-05-18T13:03:40.567Z,10.45
2023-05-18T13:06:26.557Z,8.77
2023-05-18T13:09:12.946Z,9.45
2023-05-18T13:14:48.893Z,9.35
2023-05-18T13:17:32.784Z,9.43
2023-05-18T13:20:16.860Z,8.93
2023-05-18T13:23:04.492Z,9.85
2023-05-18T13:25:48.782Z,8.50
2023-05-18T13:28:32.567Z,8.88
2023-05-18T13:31:16.428Z,10.25
2023-05-18T13:34:00.151Z,10.68
2023-05-18T13:36:43.857Z,11.40
2023-05-18T13:39:29.147Z,11.00
2023-05-18T13:42:13.456Z,10.73
2023-05-18T13:44:57.180Z,9.75
2023-05-18T13:47:41.571Z,12.30
2023-05-18T13:50:26.320Z,11.48
2023-05-18T13:53:10.059Z,11.45
2023-05-18T13:55:55.358Z,11.77
2023-05-18T13:58:39.038Z,10.23
2023-05-18T14:01:23.437Z,10.23
2023-05-18T14:04:07.217Z,10.05
2023-05-18T14:06:54.349Z,10.30
2023-05-18T14:09:38.356Z,9.43
2023-05-18T14:12:23.499Z,8.57
2023-05-18T14:15:08.200Z,9.85
2023-05-18T14:17:51.985Z,8.65
2023-05-18T14:20:37.947Z,8.43
2023-05-18T14:23:21.692Z,10.07
2023-05-18T14:26:05.549Z,8.60
2023-05-18T14:28:50.641Z,9.15
2023-05-18T14:31:35.420Z,8.68
2023-05-18T14:34:19.331Z,6.60
2023-05-18T14:37:03.255Z,6.90
2023-05-18T14:39:47.156Z,6.20
2023-05-18T14:42:31.046Z,6.47
2023-05-18T14:45:17.548Z,5.95
2023-05-18T14:48:01.329Z,7.40
2023-05-18T14:50:45.157Z,7.32
2023-05-18T14:53:28.885Z,5.10
2023-05-18T14:56:13.243Z,5.82
2023-05-18T14:58:56.977Z,5.90
2023-05-18T15:01:42.294Z,5.80
2023-05-18T15:04:26.336Z,6.63
2023-05-18T15:07:10.217Z,6.80
2023-05-18T15:09:55.356Z,7.57
2023-05-18T15:12:39.115Z,7.00
2023-05-18T15:15:24.171Z,8.38
2023-05-18T15:18:11.988Z,7.07
2023-05-18T15:20:56.113Z,9.30
2023-05-18T15:23:39.925Z,7.93
2023-05-18T15:26:23.714Z,6.78
2023-05-18T15:29:07.440Z,6.40
2023-05-18T15:31:52.782Z,8.57
2023-05-18T15:34:37.927Z,9.13
2023-05-18T15:37:21.763Z,9.38
2023-05-18T15:40:06.112Z,8.18
2023-05-18T15:42:49.985Z,8.25
2023-05-18T15:45:33.850Z,7.10
2023-05-18T15:48:17.537Z,7.18
2023-05-18T15:51:02.725Z,6.80
2023-05-18T15:53:46.565Z,7.05
2023-05-18T15:56:30.561Z,6.88
2023-05-18T15:59:14.230Z,7.40
2023-05-18T16:01:57.966Z,6.10
2023-05-18T16:04:41.684Z,6.70
2023-05-18T16:07:26.783Z,6.65
2023-05-18T16:10:10.692Z,8.98
2023-05-18T16:12:54.359Z,8.50
2023-05-18T16:15:38.337Z,7.13
2023-05-18T16:18:22.160Z,7.13
2023-05-18T16:21:06.441Z,7.40
2023-05-18T16:23:51.713Z,6.25
2023-05-18T16:26:37.270Z,6.05
2023-05-18T16:29:22.273Z,7.20
2023-05-18T16:32:06.908Z,6.82
2023-05-18T16:34:50.954Z,7.75
2023-05-18T16:37:34.816Z,6.13
2023-05-18T16:40:20.258Z,7.65
2023-05-18T16:43:04.306Z,6.93
2023-05-18T16:45:48.293Z,6.55
2023-05-18T16:48:31.977Z,5.85
2023-05-18T16:51:15.798Z,6.22
2023-05-18T16:53:59.502Z,7.57
2023-05-18T16:56:44.643Z,5.95
2023-05-18T16:59:28.399Z,5.25
2023-05-18T17:02:14.103Z,5.30
2023-05-18T17:04:59.286Z,6.07
2023-05-18T17:07:43.022Z,6.55
2023-05-18T17:10:26.829Z,7.15
2023-05-18T17:13:11.915Z,8.60
2023-05-18T17:15:55.727Z,9.70
2023-05-18T17:18:39.497Z,7.40
2023-05-18T17:21:23.949Z,9.80
2023-05-18T17:24:08.262Z,9.63
2023-05-18T17:26:52.105Z,9.77
2023-05-18T17:29:37.312Z,8.57
2023-05-18T17:32:21.105Z,6.32
2023-05-18T17:35:05.648Z,8.65
2023-05-18T17:37:49.458Z,7.93
2023-05-18T17:40:33.786Z,8.23
2023-05-18T17:43:17.695Z,7.35
2023-05-18T17:46:03.193Z,10.27
2023-05-18T17:48:47.699Z,7.28
2023-05-18T17:51:31.671Z,8.35
2023-05-18T17:54:15.861Z,8.88
2023-05-18T17:56:59.601Z,10.32
2023-05-18T17:59:43.368Z,14.52
2023-05-18T18:02:28.977Z,10.18
2023-05-18T18:05:13.107Z,7.10
2023-05-18T18:07:57.587Z,8.27
2023-05-18T18:10:41.551Z,8.48
2023-05-18T18:13:26.020Z,8.18
2023-05-18T18:16:10.029Z,6.90
2023-05-18T18:18:57.085Z,6.38
2023-05-18T18:21:41.049Z,6.45
2023-05-18T18:24:25.160Z,6.93
2023-05-18T18:27:09.271Z,6.97
2023-05-18T18:29:53.382Z,7.38
2023-05-18T18:32:37.362Z,6.82
2023-05-18T18:35:22.833Z,6.30
2023-05-18T18:38:06.803Z,7.25
2023-05-18T18:40:51.355Z,6.43
2023-05-18T18:43:38.852Z,6.47
2023-05-18T18:46:22.989Z,6.90
2023-05-18T18:49:06.987Z,7.03
2023-05-18T18:51:53.291Z,7.30
2023-05-18T18:54:37.661Z,6.95
2023-05-18T18:57:21.983Z,6.93
2023-05-18T19:00:11.136Z,6.70
2023-05-18T19:02:55.338Z,7.80
2023-05-18T19:05:40.364Z,8.75
2023-05-18T19:08:25.729Z,7.88
2023-05-18T19:11:10.007Z,7.47
2023-05-18T19:13:53.870Z,7.07
2023-05-18T19:16:47.001Z,8.27
2023-05-18T19:19:32.746Z,7.97
2023-05-18T19:22:16.940Z,7.55
2023-05-18T19:25:02.400Z,7.68
2023-05-18T19:27:48.907Z,8.05
2023-05-18T19:30:32.814Z,7.70
2023-05-18T19:33:16.884Z,7.97
2023-05-18T19:36:01.402Z,8.05
2023-05-18T19:38:46.795Z,8.13
2023-05-18T19:41:32.487Z,8.32
2023-05-18T19:44:16.778Z,8.32
2023-05-18T19:47:01.074Z,8.48
2023-05-18T19:49:45.290Z,8.80
2023-05-18T19:52:29.368Z,9.35
2023-05-18T19:55:13.914Z,8.70
2023-05-18T19:57:59.400Z,8.50
2023-05-18T20:00:43.478Z,8.35
2023-05-18T20:03:27.778Z,8.27
2023-05-18T20:06:12.277Z,8.23
2023-05-18T20:08:56.200Z,8.50
2023-05-18T20:11:40.189Z,8.35
2023-05-18T20:14:27.013Z,7.43
2023-05-18T20:17:11.050Z,7.80
2023-05-18T20:19:54.857Z,7.85
2023-05-18T20:22:39.802Z,8.77
2023-05-18T20:25:25.008Z,8.23
2023-05-18T20:28:09.293Z,8.48
2023-05-18T20:30:55.175Z,8.35
2023-05-18T20:33:39.550Z,8.93
2023-05-18T20:36:23.461Z,8.15
2023-05-18T20:39:07.420Z,9.07
2023-05-18T20:41:51.348Z,8.93
2023-05-18T20:44:35.433Z,8.15
2023-05-18T20:47:21.234Z,8.38
2023-05-18T20:50:06.006Z,8.97
2023-05-18T20:52:50.703Z,9.40
2023-05-18T20:55:34.572Z,8.48
2023-05-18T20:58:19.248Z,9.32
2023-05-18T21:01:07.044Z,8.45
2023-05-18T21:03:53.048Z,8.52
2023-05-18T21:06:40.623Z,9.40
2023-05-18T21:09:24.749Z,8.88
2023-05-18T21:12:09.037Z,9.07
2023-05-18T21:14:52.972Z,8.50
2023-05-18T21:17:36.918Z,8.77
2023-05-18T21:20:22.215Z,9.10
2023-05-18T21:23:06.229Z,9.20
2023-05-18T21:25:50.162Z,9.05
2023-05-18T21:28:34.107Z,9.50
2023-05-18T21:31:18.127Z,9.52
2023-05-18T21:34:02.007Z,10.93
2023-05-18T21:36:47.391Z,9.63
2023-05-18T21:39:31.555Z,10.20
2023-05-18T21:42:15.542Z,12.90
2023-05-18T21:44:59.352Z,10.37
2023-05-18T21:47:43.397Z,11.60
2023-05-18T21:50:27.924Z,13.63
2023-05-18T21:53:13.088Z,11.53
2023-05-18T21:55:57.065Z,10.90
2023-05-18T21:58:40.901Z,10.67
2023-05-18T22:01:24.861Z,10.87
2023-05-18T22:04:08.827Z,11.10
2023-05-18T22:06:54.484Z,10.70
2023-05-18T22:09:39.725Z,11.17
2023-05-18T22:12:23.673Z,10.93
2023-05-18T22:15:10.482Z,10.97
2023-05-18T22:17:55.815Z,10.70
2023-05-18T22:20:39.746Z,11.50
2023-05-18T22:23:26.777Z,12.37
2023-05-18T22:26:12.236Z,10.80
2023-05-18T22:28:56.189Z,12.67
2023-05-18T22:31:40.107Z,11.43
2023-05-18T22:34:23.925Z,12.27
2023-05-18T22:37:07.793Z,12.27
2023-05-18T22:39:52.900Z,12.90
2023-05-18T22:42:38.262Z,12.23
2023-05-18T22:45:22.878Z,12.43
2023-05-18T22:48:07.070Z,12.43
2023-05-18T22:50:51.404Z,13.10
2023-05-18T22:53:35.538Z,12.10
2023-05-18T22:56:21.133Z,12.70
2023-05-18T22:59:07.346Z,11.43
2023-05-18T23:01:54.685Z,11.20
2023-05-18T23:04:38.778Z,13.03
2023-05-18T23:07:24.762Z,13.50
2023-05-18T23:10:11.343Z,11.40
2023-05-18T23:12:55.875Z,13.00
2023-05-18T23:15:41.637Z,11.73
2023-05-18T23:18:31.199Z,11.73
2023-05-18T23:21:15.266Z,11.23
2023-05-18T23:23:59.907Z,12.60
2023-05-18T23:26:44.863Z,12.07
2023-05-18T23:29:29.062Z,12.27
2023-05-18T23:32:14.636Z,11.73
2023-05-18T23:34:59.682Z,11.73
2023-05-18T23:37:43.895Z,11.90
2023-05-18T23:40:28.426Z,10.17
2023-05-18T23:43:12.837Z,10.70
2023-05-18T23:45:59.797Z,10.83
2023-05-18T23:48:46.072Z,10.27
2023-05-18T23:51:33.655Z,10.43
2023-05-18T23:54:18.206Z,10.27
2023-05-18T23:57:03.378Z,9.87
2023-05-18T23:59:48.768Z,10.00
